X  Sluiten METAR luchtvaart weer gegevens      EGNS Isle of Man Airport
Temperatuur
8°C Temperatuur
5°C Dauwpunt
82% Vochtigheid



Wind
7 M/S
16 MPH
26 KM/U
14 KTS



270°
W
Huidig weer

Wat bewolking Wat bewolking
Luchtdruk 1022.01 (hPa) - 30.18 (inHg)
Zicht 6 (mijl) - 9.7 (km)
Vliegveld
Vliegveld code EGNS

Locatie : Isle of Man Airport
Afstand: 18 (km)

Metar:
EGNS 180920Z 27014KT 9999 FEW014 08/05 Q1022 NOSIG

Tijd: 18-04-2024 10:20 BST